Time;durP1;ratioP1;P1;durP2;ratioP2;P2;SDS_P1;SDS_P2;PMS_P1;PMS_P2;Temp;Humidity;BMP_temperature;BMP_pressure;BME280_temperature;BME280_humidity;BME280_pressure;Samples;Min_cycle;Max_cycle;Signal;HPM_P1;HPM_P2
2021/09/01 00:02:07;;;;;;;10.57;3.75;;;16.50;99.90;;;;;;4937130;29;20074;-76
2021/09/01 00:04:33;;;;;;;8.82;3.80;;;16.50;99.90;;;;;;4938336;29;20123;-70
2021/09/01 00:06:58;;;;;;;14.70;5.07;;;16.50;99.90;;;;;;4937289;29;20106;-70
2021/09/01 00:09:24;;;;;;;11.07;4.13;;;16.40;99.90;;;;;;4937068;29;20237;-70
2021/09/01 00:11:51;;;;;;;11.35;4.75;;;16.40;99.90;;;;;;4937902;29;20039;-70
2021/09/01 00:14:17;;;;;;;13.38;4.18;;;16.40;99.90;;;;;;4937523;29;20034;-69
2021/09/01 00:16:43;;;;;;;11.00;4.30;;;16.40;99.90;;;;;;4937896;29;20098;-70
2021/09/01 00:19:09;;;;;;;10.95;3.90;;;16.40;99.90;;;;;;4937547;29;20448;-70
2021/09/01 00:21:36;;;;;;;13.00;4.30;;;16.40;99.90;;;;;;4937486;29;20543;-69
2021/09/01 00:24:02;;;;;;;11.55;3.67;;;16.40;99.90;;;;;;4937553;29;20042;-70
2021/09/01 00:26:29;;;;;;;13.15;4.88;;;16.40;99.90;;;;;;4938164;29;20031;-70
2021/09/01 00:28:55;;;;;;;13.27;4.72;;;16.40;99.90;;;;;;4935483;29;20031;-70
2021/09/01 00:31:21;;;;;;;12.20;4.53;;;16.40;99.90;;;;;;4938021;29;20106;-70
2021/09/01 00:33:48;;;;;;;12.77;5.18;;;16.30;99.90;;;;;;4936828;29;20066;-70
2021/09/01 00:36:14;;;;;;;9.75;4.60;;;16.40;99.90;;;;;;4937700;29;20111;-69
2021/09/01 00:38:40;;;;;;;12.25;5.50;;;16.30;99.90;;;;;;4937908;29;20032;-69
2021/09/01 00:41:06;;;;;;;11.93;4.15;;;16.30;99.90;;;;;;4936970;29;20384;-69
2021/09/01 00:43:31;;;;;;;10.95;3.85;;;16.30;99.90;;;;;;4936449;29;20036;-69
2021/09/01 00:45:57;;;;;;;9.02;3.35;;;16.30;99.90;;;;;;4937233;29;20030;-69
2021/09/01 00:48:24;;;;;;;10.98;3.70;;;16.30;99.90;;;;;;4937069;29;20034;-70
2021/09/01 00:50:54;;;;;;;12.82;5.22;;;16.40;99.90;;;;;;4937094;29;20028;-69
2021/09/01 00:53:22;;;;;;;15.40;4.97;;;16.30;99.90;;;;;;4937634;29;20024;-69
2021/09/01 00:55:49;;;;;;;8.85;3.58;;;16.40;99.90;;;;;;4936452;29;20435;-70
2021/09/01 00:58:18;;;;;;;11.90;3.88;;;16.40;99.90;;;;;;4936045;29;20493;-70
2021/09/01 01:03:23;;;;;;;10.50;4.25;;;16.40;99.90;;;;;;4936637;29;20392;-69
2021/09/01 01:05:49;;;;;;;10.40;3.92;;;16.40;99.90;;;;;;4937084;29;20027;-69
2021/09/01 01:08:15;;;;;;;12.15;4.35;;;16.40;99.90;;;;;;4936960;29;20028;-70
2021/09/01 01:10:42;;;;;;;12.77;4.53;;;16.40;99.90;;;;;;4936427;29;20027;-71
2021/09/01 01:13:09;;;;;;;9.82;4.72;;;16.40;99.90;;;;;;4937057;29;20028;-70
2021/09/01 01:15:38;;;;;;;14.07;4.45;;;16.40;99.90;;;;;;4937191;29;20039;-74
2021/09/01 01:18:07;;;;;;;10.23;3.63;;;16.40;99.90;;;;;;4935728;29;20493;-70
2021/09/01 01:20:33;;;;;;;9.77;4.32;;;16.40;99.90;;;;;;4937100;29;20031;-69
2021/09/01 01:22:59;;;;;;;10.77;4.25;;;16.40;99.90;;;;;;4934762;29;20035;-70
2021/09/01 01:25:43;;;;;;;11.25;3.30;;;16.40;99.90;;;;;;4935744;29;20031;-69
2021/09/01 01:28:10;;;;;;;6.90;3.28;;;16.40;99.90;;;;;;4936758;29;20110;-69
2021/09/01 01:30:36;;;;;;;12.98;4.65;;;16.40;99.90;;;;;;4934724;29;20034;-69
2021/09/01 01:33:03;;;;;;;8.25;3.00;;;16.40;99.90;;;;;;4936405;29;20460;-70
2021/09/01 01:35:36;;;;;;;7.88;3.50;;;16.40;99.90;;;;;;4936801;29;20024;-71
2021/09/01 01:38:07;;;;;;;9.18;4.53;;;16.40;99.90;;;;;;4934379;29;20464;-70
2021/09/01 01:40:33;;;;;;;9.40;3.17;;;16.40;99.90;;;;;;4935408;29;20027;-70
2021/09/01 01:42:59;;;;;;;13.75;4.63;;;16.40;99.90;;;;;;4936281;29;20409;-71
2021/09/01 01:45:32;;;;;;;7.32;3.78;;;16.40;99.90;;;;;;4935862;29;20031;-71
2021/09/01 01:47:59;;;;;;;7.93;3.50;;;16.40;99.90;;;;;;4936143;29;20102;-70
2021/09/01 01:50:24;;;;;;;12.57;4.47;;;16.40;99.90;;;;;;4935261;29;20031;-70
2021/09/01 01:52:50;;;;;;;10.93;3.88;;;16.30;99.90;;;;;;4935438;29;20408;-70
2021/09/01 01:55:15;;;;;;;9.63;3.97;;;16.30;99.90;;;;;;4936413;29;20540;-69
2021/09/01 01:57:41;;;;;;;10.20;3.85;;;16.30;99.90;;;;;;4934832;29;20035;-70
2021/09/01 02:00:07;;;;;;;9.05;4.00;;;16.30;99.90;;;;;;4935275;29;20051;-70
2021/09/01 02:02:33;;;;;;;9.27;3.78;;;16.30;99.90;;;;;;4936214;29;20499;-70
2021/09/01 02:04:59;;;;;;;8.45;3.88;;;16.30;99.90;;;;;;4934396;29;20131;-70
2021/09/01 02:07:26;;;;;;;9.88;3.97;;;16.40;99.90;;;;;;4935621;29;20031;-70
2021/09/01 02:09:52;;;;;;;10.60;3.60;;;16.30;99.90;;;;;;4935696;29;20023;-70
2021/09/01 02:12:18;;;;;;;10.68;4.22;;;16.30;99.90;;;;;;4934202;29;20031;-70
2021/09/01 02:14:43;;;;;;;10.43;3.85;;;16.30;99.90;;;;;;4935694;29;20489;-70
2021/09/01 02:17:09;;;;;;;9.15;3.40;;;16.30;99.90;;;;;;4934876;29;20035;-69
2021/09/01 02:19:34;;;;;;;9.55;4.00;;;16.30;99.90;;;;;;4933291;29;20050;-70
2021/09/01 02:22:00;;;;;;;10.13;3.63;;;16.30;99.90;;;;;;4935448;29;20415;-71
2021/09/01 02:24:25;;;;;;;10.07;3.75;;;16.30;99.90;;;;;;4934643;29;20039;-70
2021/09/01 02:26:51;;;;;;;10.07;4.25;;;16.30;99.90;;;;;;4933584;29;20019;-72
2021/09/01 02:29:16;;;;;;;10.52;4.25;;;16.30;99.90;;;;;;4935612;29;20032;-67
2021/09/01 02:31:42;;;;;;;9.70;3.75;;;16.40;99.90;;;;;;4935463;29;20030;-67
2021/09/01 02:34:08;;;;;;;10.57;3.58;;;16.30;99.90;;;;;;4934959;29;20476;-69
2021/09/01 02:36:34;;;;;;;9.43;3.90;;;16.40;99.90;;;;;;4935711;29;20024;-69
2021/09/01 02:38:59;;;;;;;11.98;4.13;;;16.30;99.90;;;;;;4935060;29;20051;-69
2021/09/01 02:41:25;;;;;;;9.05;4.05;;;16.40;99.90;;;;;;4935225;29;20039;-68
2021/09/01 02:43:51;;;;;;;8.57;3.55;;;16.30;99.90;;;;;;4939210;29;20043;-69
2021/09/01 02:46:18;;;;;;;10.43;4.30;;;16.30;99.90;;;;;;4954573;28;20082;-68
2021/09/01 02:48:44;;;;;;;6.65;3.80;;;16.30;99.90;;;;;;4953778;28;20023;-69
2021/09/01 02:51:10;;;;;;;9.73;3.53;;;16.30;99.90;;;;;;4954570;28;20027;-68
2021/09/01 02:53:35;;;;;;;11.32;4.07;;;16.30;99.90;;;;;;4954632;28;20059;-67
2021/09/01 02:56:01;;;;;;;11.48;4.43;;;16.30;99.90;;;;;;4953420;28;20038;-68
2021/09/01 02:58:27;;;;;;;11.40;4.20;;;16.30;99.90;;;;;;4954565;28;20027;-70
2021/09/01 03:00:52;;;;;;;8.45;4.35;;;16.30;99.90;;;;;;4945470;28;20381;-70
2021/09/01 03:03:18;;;;;;;9.13;4.28;;;16.30;99.90;;;;;;4934642;29;20040;-69
2021/09/01 03:05:43;;;;;;;7.68;3.80;;;16.30;99.90;;;;;;4935271;29;20023;-70
2021/09/01 03:08:09;;;;;;;9.85;4.40;;;16.30;99.90;;;;;;4933775;29;20063;-69
2021/09/01 03:10:35;;;;;;;7.80;3.78;;;16.30;99.90;;;;;;4934543;29;20027;-70
2021/09/01 03:13:00;;;;;;;10.02;4.43;;;16.30;99.90;;;;;;4934832;29;20042;-71
2021/09/01 03:15:26;;;;;;;10.15;4.10;;;16.30;99.90;;;;;;4934915;29;20023;-71
2021/09/01 03:17:52;;;;;;;9.75;4.38;;;16.20;99.90;;;;;;4934531;29;20036;-71
2021/09/01 03:20:17;;;;;;;7.97;3.83;;;16.20;99.90;;;;;;4935003;29;20094;-72
2021/09/01 03:22:43;;;;;;;10.95;4.28;;;16.30;99.90;;;;;;4945994;29;20110;-72
2021/09/01 03:25:08;;;;;;;10.88;4.32;;;16.20;99.90;;;;;;4939037;29;20518;-70
2021/09/01 03:27:34;;;;;;;12.15;4.20;;;16.30;99.90;;;;;;4946723;29;20094;-72
2021/09/01 03:30:00;;;;;;;10.68;4.25;;;16.20;99.90;;;;;;4938428;28;20839;-71
2021/09/01 03:32:25;;;;;;;8.32;4.25;;;16.20;99.90;;;;;;4938307;29;20035;-72
2021/09/01 03:34:51;;;;;;;8.85;4.55;;;16.20;99.90;;;;;;4937288;29;20427;-71
2021/09/01 03:37:16;;;;;;;10.75;4.57;;;16.20;99.90;;;;;;4936960;29;20361;-71
2021/09/01 03:39:42;;;;;;;13.57;4.90;;;16.20;99.90;;;;;;4937238;29;20043;-70
2021/09/01 03:42:08;;;;;;;10.75;4.35;;;16.20;99.90;;;;;;4938725;29;20034;-70
2021/09/01 03:44:33;;;;;;;9.85;3.90;;;16.10;99.90;;;;;;4938008;29;20048;-69
2021/09/01 03:46:59;;;;;;;13.60;4.90;;;16.10;99.90;;;;;;4938298;29;20492;-69
2021/09/01 03:49:25;;;;;;;12.95;4.82;;;16.10;99.90;;;;;;4938695;29;20110;-69
2021/09/01 03:51:50;;;;;;;9.80;4.85;;;16.10;99.90;;;;;;4937801;29;20035;-69
2021/09/01 03:54:16;;;;;;;10.75;4.65;;;16.10;99.90;;;;;;4938598;29;20544;-70
2021/09/01 03:56:42;;;;;;;9.00;4.45;;;16.10;99.90;;;;;;4939359;29;20027;-70
2021/09/01 03:59:08;;;;;;;9.80;3.92;;;16.10;99.90;;;;;;4945881;28;20063;-71
2021/09/01 04:01:35;;;;;;;10.25;4.25;;;16.10;99.90;;;;;;4950620;28;20030;-69
2021/09/01 04:04:05;;;;;;;12.38;4.97;;;16.10;99.90;;;;;;4951583;29;20532;-69
2021/09/01 04:06:31;;;;;;;17.33;4.28;;;16.10;99.90;;;;;;4948462;29;20022;-68
2021/09/01 04:08:58;;;;;;;12.70;4.97;;;16.00;99.90;;;;;;4936549;29;20027;-69
2021/09/01 04:11:23;;;;;;;7.13;3.85;;;16.00;99.90;;;;;;4938368;29;20035;-70
2021/09/01 04:13:49;;;;;;;11.32;4.95;;;16.00;99.90;;;;;;4949920;29;20035;-69
2021/09/01 04:16:15;;;;;;;11.77;4.90;;;16.00;99.90;;;;;;4951651;29;20023;-71
2021/09/01 04:18:41;;;;;;;6.45;3.20;;;16.00;99.90;;;;;;4950548;28;20054;-70
2021/09/01 04:21:06;;;;;;;7.50;4.28;;;16.00;99.90;;;;;;4942843;29;20060;-69
2021/09/01 04:23:32;;;;;;;9.38;4.45;;;16.00;99.90;;;;;;4957190;28;20039;-71
2021/09/01 04:25:58;;;;;;;8.60;3.60;;;16.00;99.90;;;;;;4947573;28;20463;-70
2021/09/01 04:28:23;;;;;;;8.57;4.32;;;16.00;99.90;;;;;;4936920;29;20028;-70
2021/09/01 04:30:49;;;;;;;8.70;3.75;;;16.00;99.90;;;;;;4941069;29;20476;-69
2021/09/01 04:33:14;;;;;;;9.85;4.50;;;16.00;99.90;;;;;;4952320;29;20027;-69
2021/09/01 04:35:41;;;;;;;7.22;3.97;;;16.00;99.90;;;;;;4944506;28;20032;-70
2021/09/01 04:38:06;;;;;;;10.45;4.00;;;16.00;99.90;;;;;;4937760;29;20023;-69
2021/09/01 04:40:32;;;;;;;9.13;3.70;;;16.00;99.90;;;;;;4952582;29;20039;-71
2021/09/01 04:42:58;;;;;;;11.55;3.95;;;16.00;99.90;;;;;;4954684;28;20022;-71
2021/09/01 04:45:23;;;;;;;7.78;3.80;;;16.00;99.90;;;;;;4941884;29;20120;-71
2021/09/01 04:47:49;;;;;;;8.90;4.13;;;16.00;99.90;;;;;;4934992;29;20016;-71
2021/09/01 04:50:15;;;;;;;8.25;3.80;;;16.00;99.90;;;;;;4936182;29;20027;-70
2021/09/01 04:52:41;;;;;;;9.38;3.53;;;16.00;99.90;;;;;;4937298;29;20467;-70
2021/09/01 04:55:07;;;;;;;7.43;3.40;;;16.00;99.90;;;;;;4936716;29;20028;-69
2021/09/01 04:57:33;;;;;;;8.73;3.88;;;16.00;99.90;;;;;;4937501;29;20031;-69
2021/09/01 04:59:58;;;;;;;8.00;3.60;;;16.00;99.90;;;;;;4936801;29;20039;-69
2021/09/01 05:02:24;;;;;;;10.65;3.88;;;16.00;99.90;;;;;;4935567;29;20500;-69
2021/09/01 05:04:50;;;;;;;6.55;3.95;;;16.00;99.90;;;;;;4935689;29;20038;-69
2021/09/01 05:07:15;;;;;;;8.82;3.85;;;16.00;99.90;;;;;;4937331;29;20035;-70
2021/09/01 05:09:41;;;;;;;9.55;4.50;;;16.00;99.90;;;;;;4936349;29;20476;-74
2021/09/01 05:12:06;;;;;;;10.48;4.15;;;16.10;99.90;;;;;;4937068;29;20052;-72
2021/09/01 05:14:32;;;;;;;7.15;3.63;;;16.10;99.90;;;;;;4937244;29;20082;-70
2021/09/01 05:16:58;;;;;;;10.05;4.20;;;16.10;99.90;;;;;;4936076;29;20401;-70
2021/09/01 05:19:24;;;;;;;8.52;3.78;;;16.10;99.90;;;;;;4936852;29;20063;-69
2021/09/01 05:21:54;;;;;;;7.95;4.07;;;16.10;99.90;;;;;;4936692;29;20113;-69
2021/09/01 05:24:49;;;;;;;11.15;3.92;;;16.10;99.90;;;;;;4936316;29;20039;-69
2021/09/01 05:27:20;;;;;;;10.00;3.90;;;16.10;99.90;;;;;;4935625;29;20031;-69
2021/09/01 05:29:50;;;;;;;11.90;3.90;;;16.20;99.90;;;;;;4935839;29;20439;-69
2021/09/01 05:32:27;;;;;;;10.50;4.70;;;16.20;99.90;;;;;;4935491;29;20028;-69
2021/09/01 05:34:55;;;;;;;7.88;3.70;;;16.10;99.90;;;;;;4936552;29;20483;-69
2021/09/01 05:37:22;;;;;;;7.20;4.03;;;16.20;99.90;;;;;;4936137;29;20102;-71
2021/09/01 05:39:50;;;;;;;6.15;3.28;;;16.20;99.90;;;;;;4936232;29;20511;-69
2021/09/01 05:42:22;;;;;;;6.32;3.13;;;16.20;99.90;;;;;;4936715;29;20024;-69
2021/09/01 05:44:48;;;;;;;9.35;4.28;;;16.20;99.90;;;;;;4935258;29;20453;-69
2021/09/01 05:47:15;;;;;;;10.95;4.57;;;16.20;99.90;;;;;;4936440;29;20552;-69
2021/09/01 05:49:42;;;;;;;7.40;3.55;;;16.30;99.90;;;;;;4936133;29;20031;-69
2021/09/01 05:52:10;;;;;;;8.52;3.78;;;16.30;99.90;;;;;;4935623;29;20389;-69
2021/09/01 05:54:38;;;;;;;9.25;3.85;;;16.30;99.90;;;;;;4935658;29;20555;-69
2021/09/01 05:57:09;;;;;;;6.43;3.13;;;16.30;99.90;;;;;;4936054;29;20073;-69
2021/09/01 05:59:56;;;;;;;9.00;3.78;;;16.30;99.90;;;;;;4938167;29;20066;-69
2021/09/01 06:02:24;;;;;;;15.02;4.35;;;16.30;99.90;;;;;;4942374;29;20048;-69
2021/09/01 06:04:52;;;;;;;9.27;3.58;;;16.30;99.90;;;;;;4945015;28;20058;-69
2021/09/01 06:07:18;;;;;;;9.73;4.45;;;16.40;99.90;;;;;;4944427;28;20011;-71
2021/09/01 06:09:46;;;;;;;7.57;3.00;;;16.40;99.90;;;;;;4954925;28;20031;-73
2021/09/01 06:12:20;;;;;;;8.23;3.58;;;16.40;99.90;;;;;;4953645;28;20509;-71
2021/09/01 06:14:46;;;;;;;8.57;3.13;;;16.50;99.90;;;;;;4952037;29;20455;-71
2021/09/01 06:17:13;;;;;;;7.00;3.28;;;16.50;99.90;;;;;;4955360;28;20023;-70
2021/09/01 06:19:39;;;;;;;9.25;3.83;;;16.50;99.90;;;;;;4952496;28;20134;-69
2021/09/01 06:22:05;;;;;;;7.60;3.65;;;16.60;99.90;;;;;;4944459;29;20070;-70
2021/09/01 06:24:34;;;;;;;9.65;3.38;;;16.60;99.90;;;;;;4943537;28;20031;-71
2021/09/01 06:27:01;;;;;;;5.75;3.15;;;16.70;99.90;;;;;;4941734;28;20035;-71
2021/09/01 06:29:27;;;;;;;7.68;3.30;;;16.70;99.90;;;;;;4951502;28;20024;-69
2021/09/01 06:31:53;;;;;;;6.50;3.33;;;16.70;99.90;;;;;;4935465;29;20480;-71
2021/09/01 06:34:19;;;;;;;8.50;3.47;;;16.80;99.90;;;;;;4935076;29;20036;-71
2021/09/01 06:36:45;;;;;;;7.15;3.20;;;16.80;99.90;;;;;;4949572;29;20023;-72
2021/09/01 06:39:11;;;;;;;8.65;3.50;;;16.80;99.90;;;;;;4944263;29;20036;-81
2021/09/01 06:41:37;;;;;;;12.93;4.47;;;16.90;99.90;;;;;;4936539;29;20082;-74
2021/09/01 06:44:02;;;;;;;11.20;4.00;;;16.90;99.90;;;;;;4946944;29;20118;-85
2021/09/01 06:46:28;;;;;;;12.80;4.07;;;16.90;99.90;;;;;;4936486;29;20027;-79
2021/09/01 06:48:53;;;;;;;9.20;4.10;;;16.90;99.90;;;;;;4952199;28;20551;-70
2021/09/01 06:51:19;;;;;;;12.07;3.95;;;16.90;99.90;;;;;;4954278;28;20030;-70
2021/09/01 06:53:45;;;;;;;9.55;4.82;;;16.90;99.90;;;;;;4942327;28;20027;-72
2021/09/01 06:56:10;;;;;;;11.55;3.72;;;16.90;99.90;;;;;;4934867;29;20028;-71
2021/09/01 06:58:36;;;;;;;9.68;4.18;;;16.90;99.90;;;;;;4934779;28;20030;-73
2021/09/01 07:01:02;;;;;;;8.10;3.08;;;17.00;99.90;;;;;;4948518;29;20440;-74
2021/09/01 07:03:28;;;;;;;6.50;2.80;;;17.00;99.90;;;;;;4952611;29;20114;-73
2021/09/01 07:05:54;;;;;;;12.23;4.65;;;17.00;99.90;;;;;;4952142;28;20114;-76
2021/09/01 07:08:22;;;;;;;10.18;3.58;;;17.00;99.90;;;;;;4952801;28;20043;-76
2021/09/01 07:10:48;;;;;;;9.50;3.40;;;17.00;99.90;;;;;;4935906;29;20023;-76
2021/09/01 07:13:14;;;;;;;8.07;3.95;;;17.00;99.90;;;;;;4933284;29;20036;-74
2021/09/01 07:15:41;;;;;;;8.95;3.60;;;17.00;99.90;;;;;;4934243;29;20102;-77
2021/09/01 07:18:06;;;;;;;10.48;4.38;;;17.10;99.90;;;;;;4936319;29;20028;-73
2021/09/01 07:20:32;;;;;;;9.68;3.83;;;17.20;99.90;;;;;;4953775;28;20043;-76
2021/09/01 07:22:58;;;;;;;6.97;3.40;;;17.30;99.90;;;;;;4939582;29;20024;-72
2021/09/01 07:25:23;;;;;;;11.27;3.83;;;17.30;99.90;;;;;;4933516;29;20032;-71
2021/09/01 07:27:50;;;;;;;7.90;4.10;;;17.40;99.90;;;;;;4942190;29;20054;-72
2021/09/01 07:30:15;;;;;;;7.50;3.90;;;17.50;99.90;;;;;;4943897;28;20107;-71
2021/09/01 07:32:41;;;;;;;7.75;3.67;;;17.60;99.90;;;;;;4934818;29;20115;-71
2021/09/01 07:35:07;;;;;;;8.50;3.60;;;17.70;99.90;;;;;;4933589;29;20063;-69
2021/09/01 07:37:32;;;;;;;7.25;3.40;;;17.80;99.90;;;;;;4935005;29;20031;-69
2021/09/01 07:39:58;;;;;;;9.32;4.45;;;17.90;99.90;;;;;;4933971;29;20512;-69
2021/09/01 07:42:24;;;;;;;6.97;3.42;;;17.90;99.90;;;;;;4935022;29;20023;-70
2021/09/01 07:44:49;;;;;;;7.82;3.70;;;18.00;99.90;;;;;;4932678;29;20036;-69
2021/09/01 07:47:15;;;;;;;8.75;3.58;;;18.20;99.90;;;;;;4933618;29;20055;-68
2021/09/01 07:49:41;;;;;;;9.02;3.40;;;18.10;99.90;;;;;;4934782;29;20384;-68
2021/09/01 07:52:08;;;;;;;9.18;3.75;;;18.30;99.90;;;;;;4934140;29;20396;-68
2021/09/01 07:54:34;;;;;;;8.70;3.67;;;18.40;99.90;;;;;;4934913;29;20024;-68
2021/09/01 07:57:00;;;;;;;7.97;3.70;;;18.40;99.90;;;;;;4932251;29;20388;-68
2021/09/01 07:59:25;;;;;;;5.75;2.88;;;18.50;99.90;;;;;;4934836;29;20027;-68
2021/09/01 08:01:51;;;;;;;9.50;3.92;;;18.50;99.90;;;;;;4934495;29;20024;-69
2021/09/01 08:04:17;;;;;;;8.30;3.50;;;18.50;99.90;;;;;;4934051;29;20035;-68
2021/09/01 08:06:42;;;;;;;10.20;3.63;;;18.50;99.90;;;;;;4933446;29;20151;-68
2021/09/01 08:09:08;;;;;;;9.50;4.15;;;18.50;99.90;;;;;;4934550;29;20392;-68
2021/09/01 08:11:33;;;;;;;8.48;3.05;;;18.50;99.90;;;;;;4934044;29;20505;-68
2021/09/01 08:13:59;;;;;;;9.40;3.22;;;18.60;99.90;;;;;;4932927;29;20036;-68
2021/09/01 08:16:26;;;;;;;7.30;3.63;;;18.60;99.90;;;;;;4933931;29;20031;-68
2021/09/01 08:18:51;;;;;;;10.00;3.50;;;18.60;99.90;;;;;;4937041;29;20092;-68
2021/09/01 08:21:17;;;;;;;8.45;3.80;;;18.60;99.90;;;;;;4936786;29;20118;-69
2021/09/01 08:23:43;;;;;;;8.80;3.70;;;18.70;99.90;;;;;;4937781;29;20036;-67
2021/09/01 08:26:08;;;;;;;6.93;3.60;;;18.70;99.90;;;;;;4937224;29;20035;-68
2021/09/01 08:28:34;;;;;;;8.65;3.53;;;18.80;99.90;;;;;;4936761;29;20107;-68
2021/09/01 08:30:59;;;;;;;9.82;3.47;;;18.90;99.90;;;;;;4936381;29;20031;-68
2021/09/01 08:33:25;;;;;;;9.32;4.00;;;19.00;99.90;;;;;;4937610;29;20024;-68
2021/09/01 08:35:50;;;;;;;6.13;3.10;;;19.10;99.90;;;;;;4937617;29;20028;-68
2021/09/01 08:38:16;;;;;;;7.75;3.05;;;19.10;99.90;;;;;;4937791;29;20099;-68
2021/09/01 08:40:42;;;;;;;7.10;3.30;;;19.20;99.90;;;;;;4936816;29;20380;-68
2021/09/01 08:43:08;;;;;;;7.90;3.83;;;19.30;99.90;;;;;;4937523;29;20031;-68
2021/09/01 08:45:33;;;;;;;10.10;3.88;;;19.40;99.90;;;;;;4936459;29;20031;-68
2021/09/01 08:48:00;;;;;;;8.98;3.38;;;19.50;99.90;;;;;;4935455;29;20059;-68
2021/09/01 08:50:29;;;;;;;7.22;3.20;;;19.50;99.90;;;;;;4937596;29;20032;-68
2021/09/01 08:52:56;;;;;;;6.68;3.22;;;19.50;99.90;;;;;;4937238;29;20042;-68
2021/09/01 08:55:21;;;;;;;8.25;3.33;;;19.50;99.90;;;;;;4936988;29;20032;-69
2021/09/01 08:57:47;;;;;;;9.13;4.03;;;19.60;99.90;;;;;;4935695;29;20024;-70
2021/09/01 09:00:13;;;;;;;5.72;3.22;;;19.60;99.90;;;;;;4935351;29;20115;-68
2021/09/01 09:02:39;;;;;;;7.05;3.45;;;19.70;99.90;;;;;;4937643;29;20027;-68
2021/09/01 09:05:07;;;;;;;6.72;3.20;;;19.80;99.90;;;;;;4935800;29;20047;-68
2021/09/01 09:07:52;;;;;;;6.90;2.92;;;19.90;99.90;;;;;;4936600;29;20031;-68
2021/09/01 09:10:45;;;;;;;8.45;3.25;;;20.00;99.90;;;;;;4937080;29;20102;-69
2021/09/01 09:13:23;;;;;;;8.55;3.88;;;20.10;99.90;;;;;;4932297;29;20036;-68
2021/09/01 09:16:06;;;;;;;6.57;3.17;;;20.20;99.90;;;;;;4936206;29;20039;-69
2021/09/01 09:18:32;;;;;;;8.45;3.50;;;20.20;99.90;;;;;;4935699;29;20047;-71
2021/09/01 09:21:16;;;;;;;7.07;3.40;;;20.20;99.90;;;;;;4936490;29;20036;-68
2021/09/01 09:23:43;;;;;;;7.38;3.05;;;20.30;99.90;;;;;;4935601;29;20059;-69
2021/09/01 09:26:24;;;;;;;9.15;3.85;;;20.50;99.90;;;;;;4936782;29;20447;-71
2021/09/01 09:29:12;;;;;;;11.23;3.92;;;20.60;99.90;;;;;;4934482;29;20047;-68
2021/09/01 09:31:40;;;;;;;6.20;3.45;;;20.80;99.90;;;;;;4936854;29;20019;-68
2021/09/01 09:34:11;;;;;;;7.70;2.78;;;20.80;99.90;;;;;;4936692;29;20040;-69
2021/09/01 09:36:37;;;;;;;5.47;2.97;;;20.80;99.60;;;;;;4934901;29;20052;-68
2021/09/01 09:39:04;;;;;;;8.20;3.00;;;20.80;99.50;;;;;;4936281;29;20038;-68
2021/09/01 09:41:30;;;;;;;6.68;2.92;;;20.70;99.60;;;;;;4936632;29;20024;-69
2021/09/01 09:44:04;;;;;;;6.72;2.85;;;20.70;99.50;;;;;;4935468;29;20043;-68
2021/09/01 09:46:30;;;;;;;6.43;2.80;;;20.80;99.70;;;;;;4936561;29;20472;-68
2021/09/01 09:49:06;;;;;;;5.25;2.97;;;20.90;99.50;;;;;;4936107;29;20511;-68
2021/09/01 09:51:41;;;;;;;9.05;3.10;;;20.90;99.80;;;;;;4936105;29;20067;-68
2021/09/01 09:54:33;;;;;;;5.85;2.92;;;21.10;99.50;;;;;;4935041;29;20038;-68
2021/09/01 09:57:11;;;;;;;6.88;3.25;;;21.00;99.50;;;;;;4929698;29;20039;-69
2021/09/01 09:59:37;;;;;;;5.75;2.88;;;21.10;99.10;;;;;;4936350;29;20032;-68
2021/09/01 10:02:03;;;;;;;8.07;3.35;;;21.10;99.10;;;;;;4935977;29;20024;-69
2021/09/01 10:04:29;;;;;;;9.02;3.38;;;21.10;98.40;;;;;;4935625;29;20043;-71
2021/09/01 10:06:56;;;;;;;7.07;3.30;;;21.10;98.10;;;;;;4935798;29;20023;-69
2021/09/01 10:09:23;;;;;;;6.25;3.00;;;21.10;98.10;;;;;;4936272;29;20480;-68
2021/09/01 10:11:50;;;;;;;8.13;3.90;;;21.20;97.70;;;;;;4935245;29;20535;-68
2021/09/01 10:14:21;;;;;;;5.13;2.97;;;21.20;98.30;;;;;;4934804;29;20035;-68
2021/09/01 10:16:57;;;;;;;6.07;3.20;;;21.20;97.80;;;;;;4935773;29;20028;-68
2021/09/01 10:19:27;;;;;;;8.98;3.33;;;21.30;97.80;;;;;;4933690;29;20051;-68
2021/09/01 10:22:02;;;;;;;6.93;3.03;;;21.40;98.00;;;;;;4935581;29;20373;-69
2021/09/01 10:24:33;;;;;;;14.23;5.32;;;21.40;97.90;;;;;;4934422;29;20063;-68
2021/09/01 10:27:19;;;;;;;8.35;3.95;;;21.40;97.70;;;;;;4934339;29;20412;-69
2021/09/01 10:30:02;;;;;;;7.22;3.42;;;21.30;97.90;;;;;;4934272;29;20058;-68
2021/09/01 10:32:47;;;;;;;7.18;3.47;;;21.20;98.00;;;;;;4933811;29;20023;-68
2021/09/01 10:35:16;;;;;;;6.78;3.45;;;21.00;98.10;;;;;;4935629;29;20115;-68
2021/09/01 10:37:46;;;;;;;7.05;3.15;;;21.00;98.60;;;;;;4934151;29;20395;-68
2021/09/01 10:40:21;;;;;;;7.20;3.37;;;20.90;98.40;;;;;;4933193;29;20029;-67
2021/09/01 10:42:50;;;;;;;6.47;3.63;;;20.80;98.70;;;;;;4933958;29;20035;-67
2021/09/01 10:45:21;;;;;;;7.40;3.30;;;20.80;98.90;;;;;;4934182;29;20035;-67
2021/09/01 10:47:49;;;;;;;9.53;3.00;;;20.80;98.90;;;;;;4933342;29;20016;-67
2021/09/01 10:50:16;;;;;;;7.15;3.08;;;20.80;98.80;;;;;;4935353;29;20476;-68
2021/09/01 10:53:04;;;;;;;9.45;3.55;;;20.80;98.90;;;;;;4933449;29;20028;-67
2021/09/01 10:55:31;;;;;;;11.30;3.92;;;20.80;98.70;;;;;;4935444;29;20423;-67
2021/09/01 10:58:19;;;;;;;9.65;3.97;;;20.60;98.50;;;;;;4935015;29;20392;-67
2021/09/01 11:00:54;;;;;;;8.50;3.40;;;20.50;98.60;;;;;;4933269;29;20027;-67
2021/09/01 11:03:32;;;;;;;6.03;3.17;;;20.50;98.90;;;;;;4935442;29;20036;-67
2021/09/01 11:06:16;;;;;;;9.02;3.22;;;20.70;99.00;;;;;;4934903;29;20039;-69
2021/09/01 11:09:12;;;;;;;8.20;2.85;;;20.90;98.50;;;;;;4934516;29;20376;-68
2021/09/01 11:11:55;;;;;;;7.38;3.03;;;21.00;98.50;;;;;;4935227;29;20055;-67
2021/09/01 11:14:38;;;;;;;8.63;3.22;;;21.20;98.50;;;;;;4934540;29;20082;-67
2021/09/01 11:17:07;;;;;;;6.95;3.00;;;21.30;98.00;;;;;;4934710;29;20902;-68
2021/09/01 11:19:33;;;;;;;10.25;3.20;;;21.60;98.10;;;;;;4935085;29;20051;-67
2021/09/01 11:22:04;;;;;;;7.20;3.15;;;21.80;97.70;;;;;;4933979;29;20032;-69
2021/09/01 11:24:29;;;;;;;7.63;3.47;;;22.10;97.20;;;;;;4935112;29;20048;-68
2021/09/01 11:26:57;;;;;;;6.70;3.33;;;22.40;97.00;;;;;;4934661;29;20024;-68
2021/09/01 11:29:30;;;;;;;5.32;2.75;;;22.60;96.70;;;;;;4934508;29;20468;-69
2021/09/01 11:31:56;;;;;;;6.00;3.28;;;22.70;96.70;;;;;;4934931;29;20078;-67
2021/09/01 11:34:21;;;;;;;5.78;3.60;;;22.80;96.10;;;;;;4934999;29;20039;-67
2021/09/01 11:36:47;;;;;;;5.82;2.95;;;22.70;95.50;;;;;;4933984;29;20147;-67
2021/09/01 11:39:13;;;;;;;5.60;3.10;;;22.60;96.00;;;;;;4935276;29;20078;-67
2021/09/01 11:41:39;;;;;;;7.32;3.63;;;22.50;95.80;;;;;;4933639;29;20036;-68
2021/09/01 11:44:07;;;;;;;5.25;2.83;;;22.40;95.90;;;;;;4932448;29;20034;-69
2021/09/01 11:46:36;;;;;;;7.82;3.13;;;22.30;96.30;;;;;;4934911;29;20035;-68
2021/09/01 11:49:07;;;;;;;6.13;3.22;;;22.30;96.60;;;;;;4933702;29;20115;-68
2021/09/01 11:51:34;;;;;;;4.47;3.00;;;22.10;95.80;;;;;;4935545;29;20056;-70
2021/09/01 11:54:00;;;;;;;6.13;3.20;;;22.00;95.90;;;;;;4938249;29;20042;-68
2021/09/01 11:56:27;;;;;;;13.88;4.95;;;21.80;96.40;;;;;;4937939;29;20106;-68
2021/09/01 11:59:03;;;;;;;10.63;4.30;;;21.70;96.40;;;;;;4938142;29;20032;-68
2021/09/01 12:01:29;;;;;;;8.07;3.63;;;21.50;96.70;;;;;;4938637;29;20051;-68
2021/09/01 12:03:55;;;;;;;6.93;3.30;;;21.40;97.00;;;;;;4937198;29;20024;-68
2021/09/01 12:06:33;;;;;;;8.90;4.03;;;21.30;97.40;;;;;;4938566;29;20032;-68
2021/09/01 12:08:59;;;;;;;8.07;3.45;;;21.20;97.70;;;;;;4937761;29;20028;-67
2021/09/01 12:11:28;;;;;;;8.65;3.80;;;21.10;97.60;;;;;;4938205;29;20095;-68
2021/09/01 12:14:06;;;;;;;7.65;4.40;;;21.10;97.90;;;;;;4937924;29;20020;-67
2021/09/01 12:16:33;;;;;;;8.18;3.65;;;21.10;98.30;;;;;;4938388;29;20065;-68
2021/09/01 12:19:04;;;;;;;7.22;4.38;;;21.10;98.50;;;;;;4935625;29;20492;-68
2021/09/01 12:21:47;;;;;;;8.40;3.75;;;21.20;98.40;;;;;;4936842;29;20032;-68
2021/09/01 12:24:17;;;;;;;8.02;3.85;;;21.20;98.70;;;;;;4937540;29;20035;-68
2021/09/01 12:27:07;;;;;;;8.75;3.42;;;21.20;98.80;;;;;;4937830;29;20512;-68
2021/09/01 12:29:36;;;;;;;8.10;3.42;;;21.30;98.10;;;;;;4937959;29;20028;-72
2021/09/01 12:32:03;;;;;;;7.35;3.35;;;21.20;97.60;;;;;;4935493;29;20028;-68
2021/09/01 12:34:32;;;;;;;7.80;3.63;;;21.20;97.30;;;;;;4937852;29;20376;-68
2021/09/01 12:37:06;;;;;;;7.00;3.63;;;21.10;97.30;;;;;;4937464;29;20055;-69
2021/09/01 12:39:56;;;;;;;6.82;3.30;;;21.10;97.40;;;;;;4937453;29;20365;-67
2021/09/01 12:42:29;;;;;;;7.20;3.30;;;21.20;97.70;;;;;;4936548;29;20023;-68
2021/09/01 12:45:01;;;;;;;7.70;3.65;;;21.30;97.40;;;;;;4937120;29;20123;-67
2021/09/01 12:47:27;;;;;;;;;;;21.50;97.10;;;;;;4937513;29;20031;-67
2021/09/01 12:49:54;;;;;;;5.57;2.88;;;21.90;97.10;;;;;;4937258;29;19907;-67
2021/09/01 12:52:22;;;;;;;5.35;2.90;;;22.20;97.80;;;;;;4937035;29;20083;-68